EW7567 Weather Reports


time (UTC)temp
C
wind
direction
speed
KPH
gust
KPH
rain 1hr
cm
rain 24hr
cm
rain mn
cm
humidity
%
barometer
mb
20221203044403 -6 51 1.6 6.4 0.00 0.00 0.00 52 1019.8
20221203043901 -6 51 1.6 4.8 0.00 0.00 0.00 51 1019.8
20221203043401 -6 51 1.6 4.8 0.00 0.00 0.00 51 1019.8
20221203042901 -6 51 3.2 8.0 0.00 0.00 0.00 51 1019.6
20221203042359 -6 51 4.8 9.7 0.00 0.00 0.00 51 1019.6
20221203041900 -6 51 4.8 14.5 0.00 0.00 0.00 51 1019.6
20221203041400 -6 51 3.2 14.5 0.00 0.00 0.00 51 1019.8
20221203040901 -5 51 3.2 8.0 0.00 0.00 0.00 52 1019.8
20221203040359 -5 51 3.2 9.7 0.00 0.00 0.00 52 1019.6
20221203035902 -5 51 3.2 9.7 0.00 0.00 0.00 52 1019.8
20221203035359 -5 51 3.2 8.0 0.00 0.00 0.00 51 1019.6
20221203034859 -5 51 4.8 9.7 0.00 0.00 0.00 52 1019.5
20221203034356 -5 51 4.8 11.3 0.00 0.00 0.00 53 1019.4
20221203033857 -5 51 3.2 11.3 0.00 0.00 0.00 53 1019.4
20221203033353 -5 51 3.2 9.7 0.00 0.00 0.00 52 1019.3
20221203032854 -5 51 3.2 9.7 0.00 0.00 0.00 52 1019.3
20221203032348 -5 51 4.8 11.3 0.00 0.00 0.00 52 1019.3
20221203031842 -5 51 4.8 11.3 0.00 0.00 0.00 52 1019.4
20221203030830 -5 51 3.2 8.0 0.00 0.00 0.00 52 1019.1
20221203025817 -4 51 4.8 14.5 0.00 0.00 0.00 51 1018.9
20221203025312 -4 51 4.8 9.7 0.00 0.00 0.00 51 1019.1
20221203024300 -4 51 3.2 8.0 0.00 0.00 0.00 52 1019.1
20221203023247 -4 51 4.8 9.7 0.00 0.00 0.00 52 1019.0
20221203022741 -4 51 4.8 9.7 0.00 0.00 0.00 52 1019.1
20221203022237 -4 51 4.8 9.7 0.00 0.00 0.00 52 1019.0
20221203021737 -4 51 3.2 6.4 0.00 0.00 0.00 52 1018.9
20221203021238 -4 51 3.2 6.4 0.00 0.00 0.00 51 1018.8
20221203020737 -3 51 3.2 8.0 0.00 0.00 0.00 50 1018.8
20221203020237 -3 51 3.2 8.0 0.00 0.00 0.00 50 1018.7
20221203015737 -3 51 3.2 6.4 0.00 0.00 0.00 50 1018.5
20221203015237 -3 51 3.2 6.4 0.00 0.00 0.00 50 1018.5
20221203014737 -3 51 3.2 6.4 0.00 0.00 0.00 49 1018.4
20221203014237 -3 51 3.2 9.7 0.00 0.00 0.00 49 1018.4
20221203013738 -3 51 3.2 9.7 0.00 0.00 0.00 48 1018.3
20221203013238 -3 51 3.2 8.0 0.00 0.00 0.00 48 1018.2
20221203012237 -3 51 3.2 9.7 0.00 0.00 0.00 48 1018.2
20221203010733 -2 51 4.8 11.3 0.00 0.00 0.00 47 1017.6
20221203010233 -2 51 4.8 9.7 0.00 0.00 0.00 47 1017.6
20221203005734 -2 51 4.8 11.3 0.00 0.00 0.00 46 1017.3
20221203005228 -2 51 4.8 11.3 0.00 0.00 0.00 47 1017.1
20221203004722 -1 51 3.2 9.7 0.00 0.00 0.00 46 1017.1
20221203004217 -1 51 3.2 11.3 0.00 0.00 0.00 45 1016.7
20221203003711 -1 51 6.4 20.9 0.00 0.00 0.00 44 1016.5
20221203003203 0 51 4.8 20.9 0.00 0.00 0.00 44 1016.6
20221203002658 0 11 1.6 11.3 0.00 0.00 0.00 44 1016.1
20221203002152 0 9 1.6 6.4 0.00 0.00 0.00 44 1015.7
20221203001140 1 9 1.6 4.8 0.00 0.00 0.00 42 1015.3
20221203000634 1 9 1.6 3.2 0.00 0.00 0.00 42 1015.1
20221203000128 1 9 1.6 3.2 0.00 0.00 0.00 41 1015.0
20221202235621 2 9 1.6 4.8 0.00 0.00 0.00 41 1014.8
20221202234106 3 9 1.6 4.8 0.00 0.00 0.00 41 1014.3
20221202233106 3 9 1.6 4.8 0.00 0.00 0.00 39 1013.9
20221202232607 3 9 3.2 6.4 0.00 0.00 0.00 38 1013.8
20221202232105 4 9 3.2 6.4 0.00 0.00 0.00 37 1013.6
20221202231604 4 9 3.2 6.4 0.00 0.00 0.00 37 1013.4
20221202231103 5 9 3.2 8.0 0.00 0.00 0.00 36 1013.2
20221202230603 5 9 3.2 8.0 0.00 0.00 0.00 36 1012.7
20221202230102 5 9 1.6 8.0 0.00 0.00 0.00 36 1012.6
20221202225058 5 9 1.6 4.8 0.00 0.00 0.00 38 1012.5
20221202224057 6 9 3.2 8.0 0.00 0.00 0.00 39 1011.9
20221202223556 6 9 3.2 6.4 0.00 0.00 0.00 40 1011.7
20221202223056 6 9 3.2 6.4 0.00 0.00 0.00 39 1011.5
20221202222557 6 9 3.2 6.4 0.00 0.00 0.00 40 1011.5
20221202222055 6 9 3.2 6.4 0.00 0.00 0.00 39 1011.2
20221202221555 6 9 1.6 8.0 0.00 0.00 0.00 40 1011.1
20221202221056 6 9 1.6 8.0 0.00 0.00 0.00 39 1010.9
20221202220550 6 9 3.2 8.0 0.00 0.00 0.00 39 1010.6
20221202220044 6 9 4.8 11.3 0.00 0.00 0.00 40 1010.4
20221202215032 6 10 3.2 8.0 0.00 0.00 0.00 39 1010.0
20221202214526 6 10 3.2 8.0 0.00 0.00 0.00 40 1009.9
20221202214020 6 10 3.2 8.0 0.00 0.00 0.00 40 1009.9
20221202213514 6 10 4.8 11.3 0.00 0.00 0.00 41 1009.4
20221202213008 6 10 3.2 11.3 0.00 0.00 0.00 41 1009.3
20221202212501 5 10 3.2 12.9 0.00 0.00 0.00 44 1009.2
20221202211450 5 9 3.2 11.3 0.00 0.00 0.00 43 1009.3
20221202210944 5 9 3.2 11.3 0.00 0.00 0.00 43 1008.8
20221202210438 5 9 4.8 12.9 0.00 0.00 0.00 43 1008.6
20221202205932 5 11 4.8 12.9 0.00 0.00 0.00 43 1008.2
20221202205426 6 24 3.2 16.1 0.00 0.00 0.00 42 1008.3
20221202204926 6 24 4.8 16.1 0.00 0.00 0.00 42 1008.2
20221202204426 6 15 4.8 12.9 0.00 0.00 0.00 41 1008.0
20221202203925 7 351 4.8 14.5 0.00 0.00 0.00 39 1007.8
20221202202925 7 289 6.4 24.1 0.00 0.00 0.00 40 1007.5
20221202202429 7 337 6.4 24.1 0.00 0.00 0.00 41 1007.5
20221202201924 7 44 6.4 20.9 0.00 0.00 0.00 43 1007.4
20221202201426 7 47 6.4 19.3 0.00 0.00 0.00 42 1007.2
20221202200926 8 19 6.4 16.1 0.00 0.00 0.00 39 1007.4
20221202200426 9 307 8.0 22.5 0.00 0.00 0.00 38 1007.2
20221202195923 11 303 9.7 24.1 0.00 0.00 0.00 34 1006.6
20221202195424 12 290 8.0 24.1 0.00 0.00 0.00 32 1007.4
20221202194924 12 250 6.4 14.5 0.00 0.00 0.00 33 1006.0
20221202194422 12 143 4.8 14.5 0.00 0.00 0.00 34 1005.8
20221202193917 11 200 6.4 17.7 0.00 0.00 0.00 34 1005.8
20221202193416 11 205 6.4 17.7 0.00 0.00 0.00 35 1005.8
20221202192917 11 180 4.8 8.0 0.00 0.00 0.00 35 1005.7
20221202192416 11 185 4.8 9.7 0.00 0.00 0.00 35 1005.5
20221202191917 11 185 4.8 11.3 0.00 0.00 0.00 35 1005.4
20221202191416 11 211 4.8 11.3 0.00 0.00 0.00 36 1005.3
20221202190917 11 249 4.8 11.3 0.00 0.00 0.00 36 1005.2
20221202190418 10 290 4.8 12.9 0.00 0.00 0.00 37 1004.9
20221202185917 10 291 6.4 12.9 0.00 0.00 0.00 38 1005.1
20221202185412 10 291 6.4 12.9 0.00 0.00 0.00 39 1005.1
20221202184913 10 292 6.4 12.9 0.00 0.00 0.00 39 1004.9
20221202184413 10 288 9.7 25.7 0.00 0.00 0.00 41 1004.8
20221202183913 10 296 9.7 25.7 0.00 0.00 0.00 38 1004.8
20221202183412 11 241 8.0 20.9 0.00 0.00 0.00 34 1004.7
20221202182414 11 190 11.3 25.7 0.00 0.00 0.00 35 1004.7
20221202181914 11 167 11.3 22.5 0.00 0.00 0.00 36 1004.6
20221202180908 11 236 9.7 33.8 0.00 0.00 0.00 36 1004.6
20221202180408 11 187 9.7 19.3 0.00 0.00 0.00 37 1004.4
20221202175409 11 182 9.7 19.3 0.00 0.00 0.00 37 1004.3
20221202174908 11 194 11.3 20.9 0.00 0.00 0.00 37 1004.3
20221202174410 10 141 9.7 25.7 0.00 0.00 0.00 38 1004.2
20221202173409 10 186 12.9 29.0 0.00 0.00 0.00 39 1004.1
20221202172910 10 175 12.9 27.4 0.00 0.00 0.00 39 1004.0
20221202172409 10 194 12.9 24.1 0.00 0.00 0.00 39 1003.8
20221202171910 10 175 12.9 24.1 0.00 0.00 0.00 39 1003.8
20221202171410 10 184 12.9 25.7 0.00 0.00 0.00 39 1003.7
20221202170910 10 200 12.9 29.0 0.00 0.00 0.00 39 1003.8
20221202170409 10 184 16.1 33.8 0.00 0.00 0.00 39 1003.6
20221202165406 10 188 14.5 37.0 0.00 0.00 0.00 39 1003.6
20221202164906 9 195 14.5 29.0 0.00 0.00 0.00 39 1003.6
20221202164407 9 215 14.5 30.6 0.00 0.00 0.00 39 1003.5
20221202163907 9 157 12.9 30.6 0.00 0.00 0.00 38 1003.3
20221202163401 9 182 12.9 24.1 0.00 0.00 0.00 38 1003.5
20221202162854 9 209 12.9 32.2 0.00 0.00 0.00 38 1003.7
20221202162356 9 256 11.3 32.2 0.00 0.00 0.00 38 1003.3
20221202161358 9 178 12.9 24.1 0.00 0.00 0.00 38 1003.3
20221202160855 9 182 11.3 24.1 0.00 0.00 0.00 38 1003.2
20221202155856 8 222 11.3 29.0 0.00 0.00 0.00 39 1003.1
20221202155354 8 197 14.5 29.0 0.00 0.00 0.00 39 1003.0
20221202154856 8 179 14.5 29.0 0.00 0.00 0.00 39 1003.1
20221202154354 8 167 16.1 33.8 0.00 0.00 0.00 40 1002.9
20221202153354 8 167 12.9 33.8 0.00 0.00 0.00 40 1002.5
20221202152854 7 200 16.1 29.0 0.00 0.00 0.00 41 1002.4
20221202151852 7 193 16.1 30.6 0.00 0.00 0.00 40 1002.3
20221202150855 7 198 12.9 32.2 0.00 0.00 0.00 40 1002.4
20221202150350 7 182 12.9 30.6 0.00 0.00 0.00 40 1002.3
20221202145844 7 191 14.5 30.6 0.00 0.00 0.00 40 1002.3
20221202145344 7 282 14.5 30.6 0.00 0.00 0.00 40 1002.1
20221202144844 7 190 16.1 32.2 0.00 0.00 0.00 39 1001.8
20221202144344 7 197 16.1 32.2 0.00 0.00 0.00 39 1001.6
20221202143844 7 195 16.1 37.0 0.00 0.00 0.00 39 1001.4
20221202143345 7 185 17.7 37.0 0.00 0.00 0.00 39 1001.2
20221202142844 7 226 19.3 41.8 0.00 0.00 0.00 39 1000.9
20221202142344 7 163 19.3 41.8 0.00 0.00 0.00 38 1000.8
20221202141844 7 240 17.7 40.2 0.00 0.00 0.00 38 1000.8
20221202141344 7 186 17.7 40.2 0.00 0.00 0.00 37 1000.6
20221202140844 7 194 17.7 40.2 0.00 0.00 0.00 36 1000.3
20221202135844 7 188 19.3 38.6 0.00 0.00 0.00 36 1000.1
20221202135345 7 184 17.7 38.6 0.00 0.00 0.00 36 999.8
20221202134844 7 178 16.1 37.0 0.00 0.00 0.00 35 999.9
20221202134344 7 208 17.7 40.2 0.00 0.00 0.00 35 999.8
20221202133839 7 196 17.7 40.2 0.00 0.00 0.00 34 999.5
20221202133334 7 175 19.3 40.2 0.00 0.00 0.00 34 999.2
20221202132826 7 184 22.5 49.9 0.00 0.00 0.00 34 999.2
20221202132321 7 215 20.9 49.9 0.00 0.00 0.00 34 999.2
20221202131815 7 190 20.9 43.5 0.00 0.00 0.00 34 999.2
20221202131309 7 197 19.3 43.5 0.00 0.00 0.00 34 999.3
20221202130803 7 189 17.7 40.2 0.00 0.00 0.00 33 999.3
20221202130257 7 173 19.3 46.7 0.00 0.00 0.00 34 999.2
20221202125751 7 189 20.9 46.7 0.00 0.00 0.00 33 999.7
20221202124739 8 229 19.3 38.6 0.00 0.00 0.00 33 999.5
20221202124233 7 192 17.7 40.2 0.00 0.00 0.00 34 999.3
20221202123727 7 194 16.1 40.2 0.00 0.00 0.00 34 999.2
20221202123221 7 191 16.1 33.8 0.00 0.00 0.00 34 999.3
20221202122715 7 175 16.1 33.8 0.00 0.00 0.00 35 999.5
20221202121703 7 185 16.1 41.8 0.00 0.00 0.00 35 999.5
20221202121157 8 171 17.7 41.8 0.00 0.00 0.00 35 999.6
20221202120652 7 190 16.1 41.8 0.00 0.00 0.00 35 999.5
20221202120145 7 216 16.1 33.8 0.00 0.00 0.00 35 999.7
20221202115638 8 248 14.5 30.6 0.00 0.00 0.00 35 999.6
20221202115133 8 190 12.9 38.6 0.00 0.00 0.00 35 999.2
20221202114628 8 217 16.1 38.6 0.00 0.00 0.00 35 999.2
20221202114120 8 211 19.3 54.7 0.00 0.00 0.00 35 999.1
20221202113615 8 167 20.9 54.7 0.00 0.00 0.00 35 999.1
20221202112056 8 192 19.3 40.2 0.00 0.00 0.00 35 999.1
20221202111551 8 238 19.3 43.5 0.00 0.00 0.00 35 998.9
20221202111045 8 254 19.3 45.1 0.00 0.00 0.00 35 999.1
20221202110033 8 178 20.9 45.1 0.00 0.00 0.00 34 998.7
20221202105021 8 246 20.9 59.5 0.00 0.00 0.00 34 999.1
20221202104515 8 236 20.9 46.7 0.00 0.00 0.00 33 999.2
20221202104009 8 217 19.3 46.7 0.00 0.00 0.00 33 999.3
20221202103503 8 198 19.3 51.5 0.00 0.00 0.00 33 999.2
20221202102957 8 187 17.7 51.5 0.00 0.00 0.00 33 999.5
20221202102451 8 242 17.7 40.2 0.00 0.00 0.00 33 999.3
20221202101945 8 236 19.3 46.7 0.00 0.00 0.00 32 999.2
20221202101439 8 239 19.3 46.7 0.00 0.00 0.00 32 999.3
20221202100934 8 176 19.3 41.8 0.00 0.00 0.00 31 999.5
20221202100428 8 194 17.7 41.8 0.00 0.00 0.00 31 999.6
20221202095427 8 223 19.3 41.8 0.00 0.00 0.00 31 999.3
20221202094928 8 204 19.3 48.3 0.00 0.00 0.00 31 999.7
20221202094428 8 240 17.7 48.3 0.00 0.00 0.00 31 999.7
20221202093927 8 180 16.1 38.6 0.00 0.00 0.00 31 1000.1
20221202092928 8 225 16.1 37.0 0.00 0.00 0.00 32 1000.3
20221202092429 8 247 16.1 38.6 0.00 0.00 0.00 32 1000.2
20221202091427 8 252 16.1 40.2 0.00 0.00 0.00 32 1000.4
20221202090927 8 207 17.7 45.1 0.00 0.00 0.00 32 1000.2
20221202090426 8 223 17.7 45.1 0.00 0.00 0.00 32 999.9
20221202085926 8 223 17.7 48.3 0.00 0.00 0.00 32 999.8
20221202085426 8 194 17.7 48.3 0.00 0.00 0.00 32 999.8
20221202084926 8 207 19.3 41.8 0.00 0.00 0.00 32 999.6
20221202084427 8 225 20.9 54.7 0.00 0.00 0.00 32 999.9
20221202083921 8 240 17.7 54.7 0.00 0.00 0.00 32 1000.2
20221202083415 8 198 17.7 46.7 0.00 0.00 0.00 32 1000.4
20221202082909 8 201 19.3 46.7 0.00 0.00 0.00 32 1000.8
20221202082409 8 232 16.1 46.7 0.00 0.00 0.00 32 1000.8
20221202081857 8 244 14.5 46.7 0.00 0.00 0.00 31 1001.2
20221202081350 8 219 16.1 37.0 0.00 0.00 0.00 31 1001.4
20221202080851 8 220 16.1 37.0 0.00 0.00 0.00 31 1001.5
20221202080348 8 254 16.1 32.2 0.00 0.00 0.00 31 1002.0
20221202075349 9 263 17.7 37.0 0.00 0.00 0.00 30 1002.4
20221202074849 9 277 14.5 35.4 0.00 0.00 0.00 30 1002.3
20221202073347 9 300 16.1 38.6 0.00 0.00 0.00 29 1003.0
20221202072848 9 277 17.7 37.0 0.00 0.00 0.00 29 1003.2
20221202072348 9 290 16.1 33.8 0.00 0.00 0.00 29 1003.2
20221202071849 9 273 14.5 40.2 0.00 0.00 0.00 29 1003.5
20221202071344 9 282 14.5 40.2 0.00 0.00 0.00 29 1003.8
20221202070844 9 263 16.1 35.4 0.00 0.00 0.00 29 1003.6
20221202070343 9 286 17.7 37.0 0.00 0.00 0.00 29 1003.8
20221202065344 9 275 12.9 30.6 0.00 0.00 0.00 29 1004.0
20221202064847 9 267 14.5 30.6 0.00 0.00 0.00 28 1003.7
20221202064348 9 279 12.9 30.6 0.00 0.00 0.00 28 1003.8
20221202063847 9 277 11.3 30.6 0.00 0.00 0.00 28 1003.7
20221202063348 9 276 9.7 24.1 0.00 0.00 0.00 28 1004.0
20221202062842 10 265 11.3 25.7 0.00 0.00 0.00 28 1003.8
20221202062344 10 271 11.3 25.7 0.00 0.00 0.00 27 1004.0
20221202061340 10 279 9.7 27.4 0.00 0.00 0.00 27 1004.4
20221202060841 10 272 6.4 14.5 0.00 0.00 0.00 27 1004.1
20221202060340 10 271 11.3 30.6 0.00 0.00 0.00 27 1004.3
20221202055840 10 271 11.3 30.6 0.00 0.00 0.00 27 1004.3
20221202055340 10 231 8.0 24.1 0.00 0.00 0.00 26 1004.6
20221202053837 10 195 9.7 30.6 0.00 0.00 0.00 26 1004.6
20221202053336 10 202 12.9 32.2 0.00 0.00 0.00 26 1004.6
20221202052837 10 230 11.3 32.2 0.00 0.00 0.00 26 1004.3
20221202051837 10 180 12.9 27.4 0.00 0.00 0.00 26 1004.2
20221202051335 10 193 14.5 32.2 0.00 0.00 0.00 26 1004.2
20221202050836 10 178 12.9 32.2 0.00 0.00 0.00 26 1004.3
20221202050337 10 162 12.9 27.4 0.00 0.00 0.00 26 1004.1
20221202045837 10 182 14.5 30.6 0.00 0.00 0.00 26 1004.2
20221202045337 10 184 14.5 30.6 0.00 0.00 0.00 26 1004.1
20221202044837 10 207 12.9 29.0 0.00 0.00 0.00 26 1004.2